Portada
METAR-TAF:

METAR-TAF

Aeroports :

Memphis, Tennessee, Estats Units d'Amèrica

latitud: 35-03-40N, longitud: 089-59-06W, altitud: 101 m

Observació

L'informe es va fer fa 25 minuts, a les 22:54 UTC
Vent 9 kt del Nord
Temperatura 27°C
Humitat 42%
Pressió 1017 hPa
Visibilitat: 16.1 km
Escasses núvols a una alçada de 5500 ft

METAR: KMEM 292254Z 36009KT 10SM FEW055 27/13 A3004 RMK AO2 SLP169 T02720128

Hora: 18:19 (23:19 UTC)

Pronòstic

L'informe es va fer fa 2 hores i 40 minuts, a les 20:39 UTC
Pronòstic vàlid del 29 a les 21 UTC al 30 a les 24 UTC
Vent 9 kt del Nord/Nord-Oest
Visibilitat: 10 km
Núvols disperses a una alçada de 4500 ft
A partir de les 30 a les 0100 UTC
Vent 5 kt del Nord
Visibilitat: 10 km
Cel clar
A partir de les 30 a les 1500 UTC
Vent 8 kt del Nord
Visibilitat: 10 km
Escasses núvols a una alçada de 25000 ft

TAF: KMEM 292039Z 2921/3024 33009KT P6SM SCT045 FM300100 01005KT P6SM SKC FM301500 01008KT P6SM FEW250

Observacions i pronòstics meteorològics de més de 4000 aeroports (METAR i TAF).

Les estacions disponibles són els punts grocs i vermells al mapa.

Posi el ratolí al punt desitjat per veure el nom de l'estació.

Feu clic per veure les observacions i els pronòstics meteorològics.

Per canviar el mapa: feu clic els botons verds amb una creu de color negre per apropar; al botó verd amb un guió per allunyar la imatge; o en les fletxes verdes per a mapes adjacents.


METAR-TAF: